Time;durP1;ratioP1;P1;durP2;ratioP2;P2;SDS_P1;SDS_P2;PMS_P1;PMS_P2;Temp;Humidity;BMP_temperature;BMP_pressure;BME280_temperature;BME280_humidity;BME280_pressure;Samples;Min_cycle;Max_cycle;Signal;HPM_P1;HPM_P2
2023/05/07 00:01:08;;;;;;;4.67;3.90;;;;;;;14.17;100.00;97988.78;5131149;28;20222;-73
2023/05/07 00:03:35;;;;;;;4.93;3.43;;;;;;;14.22;100.00;97988.06;5131203;28;20205;-73
2023/05/07 00:06:01;;;;;;;4.53;3.27;;;;;;;14.16;100.00;97992.50;5131057;28;20223;-73
2023/05/07 00:08:27;;;;;;;4.87;3.90;;;;;;;14.15;100.00;97990.88;5131109;28;20206;-73
2023/05/07 00:10:54;;;;;;;3.80;3.13;;;;;;;14.11;100.00;97989.72;5131120;28;20203;-73
2023/05/07 00:13:20;;;;;;;4.63;3.60;;;;;;;14.00;100.00;97993.31;5131099;28;20213;-73
2023/05/07 00:15:47;;;;;;;5.00;3.53;;;;;;;14.00;100.00;97987.97;5130993;27;20557;-73
2023/05/07 00:18:13;;;;;;;5.13;3.50;;;;;;;14.02;100.00;97993.06;5130919;28;20207;-73
2023/05/07 00:20:39;;;;;;;3.67;3.33;;;;;;;14.07;100.00;97998.50;5130305;28;20230;-73
2023/05/07 00:23:06;;;;;;;4.53;3.57;;;;;;;13.98;100.00;97998.06;5130887;28;20568;-73
2023/05/07 00:25:32;;;;;;;6.10;3.43;;;;;;;13.96;100.00;97986.81;5130700;28;20222;-73
2023/05/07 00:28:03;;;;;;;5.90;3.90;;;;;;;13.95;100.00;97985.19;5130682;28;20205;-73
2023/05/07 00:30:29;;;;;;;6.27;3.50;;;;;;;13.92;100.00;97980.34;5130791;28;20230;-73
2023/05/07 00:32:56;;;;;;;4.83;3.33;;;;;;;13.96;100.00;97984.16;5120013;28;20204;-73
2023/05/07 00:35:22;;;;;;;4.83;3.57;;;;;;;13.78;100.00;97983.53;5116563;28;20729;-73
2023/05/07 00:37:49;;;;;;;6.43;3.87;;;;;;;13.82;100.00;97987.34;5116385;28;20607;-73
2023/05/07 00:40:15;;;;;;;4.50;3.73;;;;;;;13.81;100.00;97978.56;5116475;28;20662;-73
2023/05/07 00:42:46;;;;;;;4.73;3.17;;;;;;;13.78;100.00;97979.03;5116823;28;20234;-73
2023/05/07 00:45:14;;;;;;;4.67;3.60;;;;;;;13.86;100.00;97973.28;5116603;28;20227;-73
2023/05/07 00:47:41;;;;;;;6.67;3.70;;;;;;;13.70;100.00;97971.38;5116835;28;20203;-73
2023/05/07 00:50:09;;;;;;;4.43;3.80;;;;;;;13.74;100.00;97969.88;5115127;28;20697;-73
2023/05/07 00:52:36;;;;;;;6.40;3.50;;;;;;;13.70;100.00;97970.59;5116354;28;20268;-73
2023/05/07 00:55:06;;;;;;;6.93;3.70;;;;;;;13.68;100.00;97968.16;5116121;28;20207;-73
2023/05/07 00:57:41;;;;;;;4.63;3.67;;;;;;;13.73;100.00;97970.09;5116572;28;20188;-73
2023/05/07 01:00:10;;;;;;;3.77;3.23;;;;;;;13.75;100.00;97963.47;5116104;28;20214;-73
2023/05/07 01:02:37;;;;;;;4.83;3.20;;;;;;;13.70;100.00;97962.59;5116500;28;20218;-73
2023/05/07 01:05:06;;;;;;;5.50;3.30;;;;;;;13.69;100.00;97960.94;5116198;28;20203;-73
2023/05/07 01:07:34;;;;;;;7.23;3.70;;;;;;;13.52;100.00;97962.78;5115909;28;20272;-73
2023/05/07 01:10:01;;;;;;;5.37;3.33;;;;;;;13.62;100.00;97963.75;5115951;28;20203;-73
2023/05/07 01:12:29;;;;;;;5.80;3.47;;;;;;;13.46;100.00;97964.56;5116346;28;20207;-73
2023/05/07 01:14:56;;;;;;;5.30;3.30;;;;;;;13.48;100.00;97967.78;5116141;28;20206;-73
2023/05/07 01:17:22;;;;;;;4.33;2.90;;;;;;;13.40;100.00;97968.19;5116228;27;20226;-73
2023/05/07 01:19:48;;;;;;;3.33;3.03;;;;;;;13.53;100.00;97961.75;5115676;28;20666;-73
2023/05/07 01:22:17;;;;;;;4.17;3.30;;;;;;;13.41;100.00;97966.31;5114791;28;20276;-73
2023/05/07 01:24:43;;;;;;;4.27;3.07;;;;;;;13.37;100.00;97968.66;5115890;28;20210;-73
2023/05/07 01:27:10;;;;;;;5.70;3.70;;;;;;;13.39;100.00;97968.41;5115564;28;20594;-73
2023/05/07 01:29:36;;;;;;;4.07;3.50;;;;;;;13.39;100.00;97961.19;5115916;28;20206;-73
2023/05/07 01:32:03;;;;;;;4.50;3.47;;;;;;;13.34;100.00;97960.31;5115817;28;20206;-73
2023/05/07 01:34:33;;;;;;;5.37;3.30;;;;;;;13.23;100.00;97956.63;5114637;28;20203;-73
2023/05/07 01:37:00;;;;;;;4.80;3.30;;;;;;;13.20;100.00;97957.09;5115744;28;20231;-73
2023/05/07 01:39:29;;;;;;;5.90;3.40;;;;;;;13.18;100.00;97955.72;5115740;27;20218;-73
2023/05/07 01:41:57;;;;;;;6.53;3.87;;;;;;;13.22;100.00;97963.03;5115622;28;20233;-73
2023/05/07 01:44:24;;;;;;;7.13;3.47;;;;;;;13.22;100.00;97962.22;5114298;28;20213;-73
2023/05/07 01:46:50;;;;;;;5.17;3.40;;;;;;;13.12;100.00;97962.03;5115480;28;20219;-73
2023/05/07 01:49:17;;;;;;;3.77;3.00;;;;;;;13.18;100.00;97950.38;5115553;28;20206;-73
2023/05/07 01:51:44;;;;;;;3.97;3.20;;;;;;;13.05;100.00;97951.47;5115490;28;20196;-73
2023/05/07 01:54:11;;;;;;;4.07;3.50;;;;;;;13.05;100.00;97956.00;5115493;28;20210;-73
2023/05/07 01:56:37;;;;;;;5.20;3.53;;;;;;;13.12;100.00;97949.47;5115261;28;20219;-72
2023/05/07 01:59:03;;;;;;;8.93;3.20;;;;;;;13.18;100.00;97950.38;5115253;28;20214;-72
2023/05/07 02:01:30;;;;;;;5.83;3.70;;;;;;;13.16;100.00;97950.63;5115211;28;20226;-72
2023/05/07 02:03:56;;;;;;;5.00;3.77;;;;;;;13.13;100.00;97956.44;5115099;28;20236;-72
2023/05/07 02:06:23;;;;;;;4.83;3.30;;;;;;;13.09;100.00;97965.16;5114806;28;20227;-72
2023/05/07 02:08:49;;;;;;;3.43;3.13;;;;;;;13.07;100.00;97957.38;5114986;28;20203;-72
2023/05/07 02:11:15;;;;;;;5.00;3.10;;;;;;;13.13;100.00;97963.63;5114927;28;20199;-72
2023/05/07 02:13:42;;;;;;;6.40;3.30;;;;;;;13.27;100.00;97955.13;5114648;28;20670;-72
2023/05/07 02:16:08;;;;;;;5.47;3.60;;;;;;;13.18;100.00;97958.38;5114960;28;20234;-72
2023/05/07 02:18:35;;;;;;;4.80;3.00;;;;;;;13.19;100.00;97957.34;5114959;28;20200;-72
2023/05/07 02:21:01;;;;;;;5.00;3.10;;;;;;;13.16;100.00;97955.94;5114578;28;20310;-72
2023/05/07 02:23:28;;;;;;;5.30;3.10;;;;;;;13.09;100.00;97963.31;5114522;28;20203;-72
2023/05/07 02:25:54;;;;;;;5.00;3.33;;;;;;;13.08;100.00;97966.19;5114541;28;20227;-72
2023/05/07 02:28:20;;;;;;;4.13;3.70;;;;;;;13.12;100.00;97968.16;5114453;28;20295;-72
2023/05/07 02:30:47;;;;;;;5.17;3.30;;;;;;;13.05;100.00;97969.34;5114750;28;20213;-72
2023/05/07 02:33:13;;;;;;;6.13;3.37;;;;;;;13.04;100.00;97959.72;5114688;28;20217;-72
2023/05/07 02:35:40;;;;;;;6.53;3.80;;;;;;;13.00;100.00;97963.91;5114263;28;20242;-72
2023/05/07 02:38:06;;;;;;;5.37;3.83;;;;;;;12.92;100.00;97962.38;5114694;28;20238;-72
2023/05/07 02:40:38;;;;;;;7.23;4.20;;;;;;;12.89;100.00;97954.03;5114451;28;20199;-72
2023/05/07 02:43:04;;;;;;;7.73;3.77;;;;;;;12.84;100.00;97957.41;5114230;28;20187;-72
2023/05/07 02:45:31;;;;;;;4.47;3.57;;;;;;;12.77;100.00;97956.75;5114372;28;20262;-72
2023/05/07 02:47:57;;;;;;;4.73;3.73;;;;;;;12.82;100.00;97956.84;5114462;28;20203;-72
2023/05/07 02:50:24;;;;;;;6.40;4.40;;;;;;;12.80;100.00;97958.13;5114379;28;20206;-72
2023/05/07 02:52:50;;;;;;;4.57;4.00;;;;;;;12.73;100.00;97963.59;5114351;28;20289;-72
2023/05/07 02:55:17;;;;;;;7.90;4.63;;;;;;;12.74;100.00;97959.03;5113997;28;20220;-72
2023/05/07 02:57:43;;;;;;;7.77;4.90;;;;;;;12.85;100.00;97958.22;5114204;28;20214;-72
2023/05/07 03:00:17;;;;;;;9.20;4.70;;;;;;;12.79;100.00;97957.31;5113862;28;20676;-72
2023/05/07 03:02:45;;;;;;;6.80;4.97;;;;;;;12.83;100.00;97963.78;5113869;28;20687;-72
2023/05/07 03:05:12;;;;;;;8.00;4.47;;;;;;;12.84;100.00;97952.06;5114195;28;20250;-72
2023/05/07 03:07:39;;;;;;;5.03;4.17;;;;;;;12.67;100.00;97948.53;5113841;28;20678;-72
2023/05/07 03:10:06;;;;;;;6.67;3.83;;;;;;;12.62;100.00;97950.25;5114241;28;20207;-72
2023/05/07 03:12:32;;;;;;;4.47;3.63;;;;;;;12.52;100.00;97950.84;5113857;28;20208;-72
2023/05/07 03:14:58;;;;;;;4.97;3.87;;;;;;;12.49;100.00;97940.66;5113625;28;20684;-72
2023/05/07 03:17:25;;;;;;;5.57;3.87;;;;;;;12.40;100.00;97934.06;5113682;28;20538;-72
2023/05/07 03:19:51;;;;;;;4.83;3.43;;;;;;;12.47;100.00;97932.06;5113935;28;20220;-72
2023/05/07 03:22:17;;;;;;;4.53;3.87;;;;;;;12.38;100.00;97920.16;5113984;28;20210;-72
2023/05/07 03:24:44;;;;;;;4.37;3.50;;;;;;;12.37;100.00;97936.38;5113964;28;20200;-72
2023/05/07 03:27:10;;;;;;;4.87;3.47;;;;;;;12.42;100.00;97939.13;5113858;28;20242;-72
2023/05/07 03:29:36;;;;;;;4.67;3.80;;;;;;;12.37;100.00;97939.84;5113882;28;20206;-72
2023/05/07 03:32:03;;;;;;;5.77;3.63;;;;;;;12.43;100.00;97940.78;5113839;28;20199;-72
2023/05/07 03:34:29;;;;;;;3.80;3.40;;;;;;;12.47;100.00;97934.75;5113505;28;20218;-72
2023/05/07 03:36:56;;;;;;;3.90;3.60;;;;;;;12.48;100.00;97939.03;5113355;28;20231;-72
2023/05/07 03:39:22;;;;;;;5.53;3.30;;;;;;;12.52;100.00;97940.19;5113265;28;20220;-72
2023/05/07 03:41:49;;;;;;;5.20;3.43;;;;;;;12.59;100.00;97935.53;5113359;28;20632;-72
2023/05/07 03:44:15;;;;;;;5.37;4.10;;;;;;;12.57;100.00;97953.63;5113349;28;20690;-72
2023/05/07 03:46:41;;;;;;;4.90;3.80;;;;;;;12.42;100.00;97939.13;5113260;28;20594;-72
2023/05/07 03:49:08;;;;;;;4.43;3.60;;;;;;;12.39;100.00;97952.97;5113364;28;20573;-72
2023/05/07 03:51:35;;;;;;;3.83;3.20;;;;;;;12.40;100.00;97942.06;5113264;28;20544;-72
2023/05/07 03:54:02;;;;;;;4.10;3.40;;;;;;;12.30;100.00;97955.13;5113359;28;20673;-72
2023/05/07 03:56:28;;;;;;;4.07;3.67;;;;;;;12.33;100.00;97951.19;5113185;28;20226;-72
2023/05/07 03:58:55;;;;;;;4.70;3.70;;;;;;;12.30;100.00;97949.00;5113069;28;20673;-72
2023/05/07 04:01:21;;;;;;;3.57;3.20;;;;;;;12.32;100.00;97955.75;5113379;28;20231;-72
2023/05/07 04:03:47;;;;;;;4.70;3.50;;;;;;;12.31;100.00;97940.78;5113581;28;20283;-72
2023/05/07 04:06:14;;;;;;;8.50;4.03;;;;;;;12.21;100.00;97943.19;5113371;28;20319;-72
2023/05/07 04:08:40;;;;;;;5.77;3.63;;;;;;;12.29;100.00;97950.06;5116555;28;20209;-72
2023/05/07 04:11:07;;;;;;;4.70;3.97;;;;;;;12.25;100.00;97947.03;5116982;28;20203;-72
2023/05/07 04:13:33;;;;;;;5.63;3.63;;;;;;;12.19;100.00;97955.97;5116911;28;20210;-72
2023/05/07 04:16:01;;;;;;;4.33;3.73;;;;;;;12.25;100.00;97960.34;5116913;28;20226;-72
2023/05/07 04:18:28;;;;;;;3.80;3.50;;;;;;;12.26;100.00;97961.19;5117009;28;20216;-72
2023/05/07 04:20:54;;;;;;;5.10;3.80;;;;;;;12.29;100.00;97966.06;5116741;28;20217;-72
2023/05/07 04:23:21;;;;;;;4.77;3.57;;;;;;;12.29;100.00;97966.84;5116818;28;20237;-72
2023/05/07 04:25:47;;;;;;;5.03;3.53;;;;;;;12.26;100.00;97964.63;5117161;28;20226;-72
2023/05/07 04:28:13;;;;;;;5.17;3.60;;;;;;;12.32;100.00;97974.41;5116996;28;20205;-72
2023/05/07 04:30:41;;;;;;;4.47;3.97;;;;;;;12.39;100.00;97969.75;5116814;28;20209;-72
2023/05/07 04:33:07;;;;;;;4.60;4.10;;;;;;;12.37;100.00;97971.84;5116795;28;20206;-72
2023/05/07 04:35:34;;;;;;;5.57;3.77;;;;;;;12.34;100.00;97966.19;5116744;28;20223;-72
2023/05/07 04:38:00;;;;;;;5.00;3.40;;;;;;;12.31;100.00;97970.13;5116488;28;20214;-72
2023/05/07 04:40:26;;;;;;;5.60;3.50;;;;;;;12.37;100.00;97971.03;5116900;28;20206;-72
2023/05/07 04:42:53;;;;;;;5.03;3.60;;;;;;;12.39;100.00;97967.06;5116464;28;20712;-72
2023/05/07 04:45:19;;;;;;;3.90;3.13;;;;;;;12.48;100.00;97972.88;5116347;28;20710;-72
2023/05/07 04:47:46;;;;;;;4.10;3.70;;;;;;;12.49;100.00;97980.66;5116747;28;20201;-72
2023/05/07 04:50:12;;;;;;;3.70;3.40;;;;;;;12.55;100.00;97979.72;5116665;28;20203;-72
2023/05/07 04:52:38;;;;;;;4.00;3.60;;;;;;;12.55;100.00;97986.91;5116564;28;20209;-72
2023/05/07 04:55:05;;;;;;;4.50;3.63;;;;;;;12.54;100.00;97979.94;5116568;28;20207;-72
2023/05/07 04:57:31;;;;;;;5.40;3.40;;;;;;;12.54;100.00;97985.28;5116094;28;20207;-72
2023/05/07 04:59:58;;;;;;;5.77;4.10;;;;;;;12.50;100.00;97990.28;5116127;28;20217;-72
2023/05/07 05:02:24;;;;;;;4.97;3.87;;;;;;;12.59;100.00;97975.53;5116126;28;20713;-72
2023/05/07 05:04:53;;;;;;;4.53;3.60;;;;;;;12.55;100.00;97989.56;5116092;28;20218;-72
2023/05/07 05:07:19;;;;;;;4.70;3.97;;;;;;;12.56;100.00;97993.84;5116295;28;20205;-72
2023/05/07 05:09:45;;;;;;;3.93;3.63;;;;;;;12.57;100.00;97990.16;5116250;28;20206;-72
2023/05/07 05:12:12;;;;;;;4.10;3.70;;;;;;;12.63;100.00;97998.03;5115790;28;20202;-72
2023/05/07 05:14:38;;;;;;;4.40;3.93;;;;;;;12.63;100.00;97998.03;5116039;28;20218;-73
2023/05/07 05:17:05;;;;;;;4.80;3.97;;;;;;;12.58;100.00;97999.78;5116038;28;20226;-73
2023/05/07 05:19:31;;;;;;;4.03;3.63;;;;;;;12.57;100.00;98009.63;5116012;28;20293;-73
2023/05/07 05:21:57;;;;;;;4.47;3.67;;;;;;;12.69;100.00;98005.09;5115502;28;20608;-73
2023/05/07 05:24:23;;;;;;;6.87;3.90;;;;;;;12.71;100.00;98003.00;5116048;28;20229;-73
2023/05/07 05:26:50;;;;;;;4.33;3.93;;;;;;;12.77;100.00;97996.75;5115889;28;20578;-73
2023/05/07 05:29:16;;;;;;;4.10;3.50;;;;;;;12.86;100.00;97992.69;5115937;28;20207;-73
2023/05/07 05:31:43;;;;;;;3.63;3.33;;;;;;;13.01;100.00;98002.88;5115892;28;20199;-73
2023/05/07 05:34:09;;;;;;;4.50;4.00;;;;;;;13.30;100.00;98008.03;5115860;28;20206;-73
2023/05/07 05:36:35;;;;;;;5.30;3.97;;;;;;;13.40;100.00;98013.59;5115669;28;20232;-73
2023/05/07 05:39:02;;;;;;;5.73;3.50;;;;;;;13.59;100.00;98008.84;5115336;28;20726;-73
2023/05/07 05:41:28;;;;;;;4.40;3.90;;;;;;;13.59;100.00;98001.66;5115439;28;20215;-73
2023/05/07 05:43:54;;;;;;;5.07;4.10;;;;;;;13.75;100.00;98008.09;5115563;28;20577;-73
2023/05/07 05:46:21;;;;;;;4.80;4.07;;;;;;;13.82;100.00;98008.72;5115450;28;20250;-73
2023/05/07 05:48:47;;;;;;;6.03;4.33;;;;;;;14.03;100.00;98008.88;5115500;28;20211;-73
2023/05/07 05:51:14;;;;;;;3.97;3.67;;;;;;;14.09;100.00;98013.25;5115542;28;20202;-73
2023/05/07 05:53:40;;;;;;;4.43;3.97;;;;;;;14.28;100.00;98006.63;5115446;28;20199;-73
2023/05/07 05:56:07;;;;;;;5.90;4.17;;;;;;;14.24;100.00;98015.41;5115314;28;20231;-73
2023/05/07 05:58:33;;;;;;;4.87;4.07;;;;;;;14.23;100.00;98013.75;5115911;28;20211;-73
2023/05/07 06:01:02;;;;;;;5.43;4.80;;;;;;;14.08;100.00;98016.97;5115352;28;20214;-73
2023/05/07 06:03:28;;;;;;;4.03;3.63;;;;;;;14.02;100.00;98025.94;5115154;28;20231;-73
2023/05/07 06:05:55;;;;;;;4.63;4.00;;;;;;;14.00;100.00;98022.72;5115039;28;20238;-73
2023/05/07 06:08:21;;;;;;;5.27;4.10;;;;;;;14.00;100.00;98011.19;5114730;28;20294;-73
2023/05/07 06:10:47;;;;;;;4.73;3.47;;;;;;;14.00;100.00;98025.38;5114633;28;20673;-73
2023/05/07 06:13:14;;;;;;;5.80;3.97;;;;;;;14.16;100.00;98024.56;5114530;28;20200;-73
2023/05/07 06:15:40;;;;;;;4.77;3.63;;;;;;;14.30;100.00;98025.13;5114501;28;20709;-73
2023/05/07 06:18:06;;;;;;;4.00;3.60;;;;;;;14.36;100.00;98024.94;5114610;28;20692;-73
2023/05/07 06:20:33;;;;;;;5.27;4.00;;;;;;;14.38;100.00;98022.03;5114663;28;20579;-73
2023/05/07 06:22:59;;;;;;;5.23;3.90;;;;;;;14.42;100.00;98029.31;5114602;28;20230;-73
2023/05/07 06:25:25;;;;;;;4.53;4.07;;;;;;;14.41;100.00;98021.53;5114519;28;20265;-73
2023/05/07 06:27:52;;;;;;;4.27;3.83;;;;;;;14.56;100.00;98025.25;5114641;28;20206;-73
2023/05/07 06:30:18;;;;;;;4.40;4.00;;;;;;;14.63;100.00;98031.25;5114190;28;20210;-73
2023/05/07 06:32:44;;;;;;;5.00;4.07;;;;;;;14.66;100.00;98035.31;5114482;28;20210;-73
2023/05/07 06:35:11;;;;;;;7.87;4.27;;;;;;;14.60;100.00;98042.44;5114504;28;20238;-73
2023/05/07 06:37:38;;;;;;;4.43;4.03;;;;;;;14.76;100.00;98043.47;5114985;28;20205;-73
2023/05/07 06:40:06;;;;;;;5.33;4.73;;;;;;;14.79;100.00;98037.66;5114465;28;20199;-73
2023/05/07 06:42:32;;;;;;;4.63;3.93;;;;;;;14.82;100.00;98029.09;5114257;28;20219;-73
2023/05/07 06:44:58;;;;;;;5.00;4.60;;;;;;;14.89;100.00;98035.94;5114699;28;20203;-73
2023/05/07 06:47:24;;;;;;;4.97;4.50;;;;;;;15.01;100.00;98033.94;5114476;28;20213;-73
2023/05/07 06:49:51;;;;;;;4.67;4.20;;;;;;;15.03;100.00;98026.50;5114414;28;20203;-73
2023/05/07 06:52:17;;;;;;;4.97;3.90;;;;;;;15.19;100.00;98036.31;5114444;28;20199;-73
2023/05/07 06:54:44;;;;;;;4.67;4.23;;;;;;;15.35;100.00;98026.63;5114264;28;20209;-73
2023/05/07 06:57:10;;;;;;;5.77;4.57;;;;;;;15.43;100.00;98027.00;5113841;28;20709;-73
2023/05/07 06:59:36;;;;;;;4.87;4.20;;;;;;;15.68;100.00;98023.78;5113910;28;20576;-73
2023/05/07 07:02:03;;;;;;;4.90;4.50;;;;;;;15.83;100.00;98021.28;5114219;28;20223;-73
2023/05/07 07:04:29;;;;;;;4.30;3.93;;;;;;;15.82;100.00;98025.00;5114203;28;20221;-73
2023/05/07 07:06:57;;;;;;;4.23;3.67;;;;;;;15.99;100.00;98029.22;5114029;28;20223;-73
2023/05/07 07:09:23;;;;;;;4.43;3.93;;;;;;;16.14;100.00;98029.38;5113731;28;20546;-73
2023/05/07 07:11:49;;;;;;;3.90;3.50;;;;;;;16.38;100.00;98033.31;5114064;28;20200;-73
2023/05/07 07:14:16;;;;;;;4.60;4.00;;;;;;;16.43;100.00;98019.19;5113987;28;20210;-73
2023/05/07 07:16:42;;;;;;;5.37;4.10;;;;;;;16.68;100.00;98022.84;5113807;28;20229;-73
2023/05/07 07:19:09;;;;;;;4.53;3.43;;;;;;;16.94;100.00;98019.28;5113893;28;20203;-73
2023/05/07 07:21:35;;;;;;;5.47;3.80;;;;;;;16.72;99.57;98020.47;5113678;28;20211;-73
2023/05/07 07:24:02;;;;;;;4.67;3.53;;;;;;;16.90;100.00;98018.16;5114148;28;20308;-74
2023/05/07 07:26:28;;;;;;;3.97;3.60;;;;;;;16.96;99.05;98022.50;5113545;28;20639;-74
2023/05/07 07:28:54;;;;;;;3.37;3.07;;;;;;;17.13;99.95;98016.94;5113884;28;20215;-74
2023/05/07 07:31:21;;;;;;;4.53;3.30;;;;;;;17.28;98.11;98020.50;5113713;28;20290;-73
2023/05/07 07:33:47;;;;;;;8.03;3.50;;;;;;;17.45;97.87;98020.31;5113734;28;20199;-73
2023/05/07 07:36:13;;;;;;;4.87;3.40;;;;;;;17.46;94.61;98021.97;5113692;28;20231;-74
2023/05/07 07:38:40;;;;;;;4.10;3.70;;;;;;;17.60;94.41;98021.19;5113591;28;20222;-74
2023/05/07 07:41:06;;;;;;;4.33;3.53;;;;;;;17.56;93.51;98020.09;5113573;28;20205;-74
2023/05/07 07:43:32;;;;;;;4.23;3.23;;;;;;;17.84;93.58;98019.66;5116974;28;20244;-74
2023/05/07 07:45:59;;;;;;;3.97;3.60;;;;;;;18.27;92.57;98019.16;5117715;28;20223;-74
2023/05/07 07:48:25;;;;;;;3.97;3.57;;;;;;;18.23;90.00;98028.06;5117760;28;20222;-73
2023/05/07 07:50:51;;;;;;;4.43;4.07;;;;;;;17.96;90.69;98027.50;5117802;28;20571;-73
2023/05/07 07:53:18;;;;;;;5.47;3.53;;;;;;;18.24;89.90;98030.47;5117680;28;20210;-73
2023/05/07 07:55:45;;;;;;;6.17;4.20;;;;;;;18.08;92.28;98023.47;5117591;28;20242;-73
2023/05/07 07:58:11;;;;;;;4.00;3.30;;;;;;;18.32;91.75;98021.06;5117631;28;20225;-73
2023/05/07 08:00:38;;;;;;;4.20;3.30;;;;;;;18.47;88.71;98021.09;5117288;28;20210;-73
2023/05/07 08:03:04;;;;;;;3.37;3.00;;;;;;;18.38;88.50;98020.00;5116947;28;20238;-73
2023/05/07 08:05:31;;;;;;;3.40;3.10;;;;;;;18.48;92.64;98020.81;5117341;28;20276;-73
2023/05/07 08:07:58;;;;;;;5.40;2.97;;;;;;;18.24;92.84;98019.69;5117480;28;20215;-73
2023/05/07 08:10:24;;;;;;;5.17;3.00;;;;;;;18.26;92.05;98022.13;5117460;27;20203;-73
2023/05/07 08:12:51;;;;;;;3.70;2.97;;;;;;;18.25;90.32;98028.59;5117052;28;20195;-74
2023/05/07 08:15:18;;;;;;;5.40;3.27;;;;;;;18.36;91.01;98031.03;5117271;28;20230;-74
2023/05/07 08:17:45;;;;;;;4.57;2.93;;;;;;;18.62;88.72;98029.97;5117263;28;20242;-73
2023/05/07 08:20:11;;;;;;;3.90;2.90;;;;;;;18.74;86.42;98030.47;5116980;28;20246;-73
2023/05/07 08:22:38;;;;;;;4.30;3.17;;;;;;;18.71;87.13;98028.34;5117014;28;20230;-73
2023/05/07 08:25:04;;;;;;;5.13;3.10;;;;;;;18.83;87.48;98028.06;5116957;28;20207;-73
2023/05/07 08:27:31;;;;;;;4.30;2.73;;;;;;;19.09;86.15;98030.41;5116974;28;20211;-73
2023/05/07 08:29:57;;;;;;;3.30;2.60;;;;;;;19.22;84.10;98029.88;5117121;28;20203;-73
2023/05/07 08:32:23;;;;;;;3.33;2.73;;;;;;;19.10;85.15;98023.94;5116978;28;20213;-73
2023/05/07 08:34:50;;;;;;;4.13;3.00;;;;;;;19.15;87.63;98021.25;5116755;28;20209;-73
2023/05/07 08:37:16;;;;;;;4.60;2.90;;;;;;;19.23;86.11;98017.22;5116778;28;20207;-73
2023/05/07 08:39:43;;;;;;;3.10;2.80;;;;;;;19.23;86.22;98020.69;5116849;28;20211;-73
2023/05/07 08:42:12;;;;;;;3.60;2.50;;;;;;;19.27;84.40;98021.78;5116573;28;20214;-73
2023/05/07 08:44:39;;;;;;;4.67;2.33;;;;;;;19.33;84.39;98023.38;5116678;28;20230;-73
2023/05/07 08:47:08;;;;;;;3.30;2.20;;;;;;;19.41;84.44;98025.50;5116719;28;20219;-73
2023/05/07 08:49:35;;;;;;;3.00;2.20;;;;;;;19.69;83.27;98030.22;5116340;28;20216;-73
2023/05/07 08:52:02;;;;;;;3.47;2.37;;;;;;;19.69;82.96;98034.81;5116371;28;20661;-73
2023/05/07 08:54:29;;;;;;;2.50;2.30;;;;;;;19.96;82.00;98021.72;5116209;28;20586;-73
2023/05/07 08:56:56;;;;;;;3.70;2.70;;;;;;;20.06;80.99;98024.34;5116501;28;20223;-73
2023/05/07 08:59:22;;;;;;;2.67;2.27;;;;;;;20.49;78.43;98030.81;5116233;28;20662;-73
2023/05/07 09:01:49;;;;;;;3.43;2.30;;;;;;;20.56;78.36;98028.56;5116260;28;20288;-73
2023/05/07 09:04:15;;;;;;;3.10;2.47;;;;;;;20.74;79.48;98028.69;5116239;28;20227;-73
2023/05/07 09:06:41;;;;;;;3.10;2.80;;;;;;;20.73;74.87;98027.09;5115865;28;20227;-74
2023/05/07 09:09:08;;;;;;;2.50;2.30;;;;;;;20.71;77.50;98029.25;5116222;28;20207;-74
2023/05/07 09:11:35;;;;;;;2.70;1.97;;;;;;;20.83;76.77;98020.75;5116247;28;20207;-74
2023/05/07 09:14:02;;;;;;;2.90;2.30;;;;;;;20.88;76.83;98018.00;5115868;28;20655;-74
2023/05/07 09:16:30;;;;;;;2.67;2.20;;;;;;;20.93;76.26;98020.72;5116031;28;20263;-74
2023/05/07 09:18:59;;;;;;;3.87;2.17;;;;;;;21.18;74.27;98015.03;5115848;28;20206;-73
2023/05/07 09:21:26;;;;;;;2.30;2.10;;;;;;;21.23;74.43;98012.25;5115843;28;20264;-73
2023/05/07 09:23:54;;;;;;;2.80;2.20;;;;;;;21.30;74.42;98018.16;5115585;28;20269;-74
2023/05/07 09:26:23;;;;;;;4.33;2.50;;;;;;;21.44;74.63;98010.94;5115823;28;20227;-74
2023/05/07 09:28:50;;;;;;;3.80;2.25;;;;;;;21.59;72.10;97998.03;5115719;28;20689;-74
2023/05/07 09:31:16;;;;;;;2.33;2.13;;;;;;;21.58;70.26;97996.44;5115636;28;20203;-73
2023/05/07 09:33:43;;;;;;;2.60;1.95;;;;;;;21.85;72.79;97995.81;5115433;28;20552;-73
2023/05/07 09:36:11;;;;;;;2.92;2.00;;;;;;;21.92;69.83;97996.25;5115680;28;20227;-73
2023/05/07 09:38:38;;;;;;;3.13;2.33;;;;;;;21.85;70.86;97993.09;5115731;28;20573;-77
2023/05/07 09:41:06;;;;;;;3.33;2.20;;;;;;;21.91;70.89;97984.63;5115577;28;20214;-77
2023/05/07 09:43:34;;;;;;;3.22;2.20;;;;;;;22.15;70.24;97990.75;5115007;28;20225;-77
2023/05/07 09:46:13;;;;;;;2.80;2.20;;;;;;;22.07;69.75;97996.03;5115478;28;20223;-77
2023/05/07 09:48:41;;;;;;;2.85;2.03;;;;;;;22.04;72.82;97989.31;5115628;28;20188;-77
2023/05/07 09:51:26;;;;;;;3.08;1.90;;;;;;;22.20;70.55;97989.88;5115326;28;20592;-76
2023/05/07 09:53:54;;;;;;;2.00;1.80;;;;;;;22.24;69.12;97990.91;5115368;28;20250;-77
2023/05/07 09:56:21;;;;;;;2.35;1.92;;;;;;;22.31;67.92;97988.59;5114904;27;20223;-77
2023/05/07 09:58:47;;;;;;;2.42;1.98;;;;;;;22.48;69.16;97994.31;5115269;28;20210;-77
2023/05/07 10:01:14;;;;;;;1.92;1.77;;;;;;;22.62;66.78;97995.16;5115093;28;20203;-77
2023/05/07 10:03:42;;;;;;;2.55;1.90;;;;;;;22.65;67.94;97991.88;5114950;28;20226;-77
2023/05/07 10:06:10;;;;;;;2.78;2.00;;;;;;;22.57;64.09;97998.75;5114176;28;20219;-77
2023/05/07 10:08:37;;;;;;;2.92;1.80;;;;;;;22.69;67.62;97990.16;5115062;28;20282;-77
2023/05/07 10:11:05;;;;;;;1.95;1.85;;;;;;;22.82;66.54;97981.25;5115505;28;20199;-77
2023/05/07 10:13:33;;;;;;;2.60;1.92;;;;;;;22.74;63.42;97979.25;5115071;28;20203;-77
2023/05/07 10:16:00;;;;;;;1.73;1.63;;;;;;;22.89;64.87;97974.31;5114734;28;20227;-77
2023/05/07 10:18:29;;;;;;;3.42;1.98;;;;;;;22.78;65.13;97972.09;5114627;28;20211;-77
2023/05/07 10:21:00;;;;;;;1.80;1.70;;;;;;;22.96;62.91;97973.94;5114388;28;20264;-77
2023/05/07 10:23:28;;;;;;;2.30;1.80;;;;;;;23.24;66.28;97965.53;5114695;28;20214;-78
2023/05/07 10:25:57;;;;;;;1.75;1.65;;;;;;;22.67;65.12;97971.50;5114318;28;20714;-77
2023/05/07 10:28:25;;;;;;;2.35;1.90;;;;;;;22.49;67.34;97968.84;5114165;28;20530;-77
2023/05/07 10:31:08;;;;;;;1.75;1.60;;;;;;;22.75;64.62;97959.16;5114695;28;20203;-77
2023/05/07 10:33:38;;;;;;;2.35;1.80;;;;;;;23.19;63.47;97957.50;5114707;28;20184;-77
2023/05/07 10:36:07;;;;;;;2.17;1.98;;;;;;;23.28;63.41;97960.28;5114393;28;20230;-77
2023/05/07 10:38:34;;;;;;;2.08;1.80;;;;;;;22.92;62.51;97962.09;5114116;28;20221;-77
2023/05/07 10:41:00;;;;;;;2.85;1.70;;;;;;;23.07;61.21;97964.50;5114494;28;20208;-77
2023/05/07 10:43:42;;;;;;;2.42;1.90;;;;;;;23.30;64.55;97958.91;5113866;28;20219;-77
2023/05/07 10:46:21;;;;;;;2.10;1.90;;;;;;;23.09;63.21;97956.88;5114213;28;20218;-77
2023/05/07 10:49:03;;;;;;;2.97;1.60;;;;;;;23.02;63.90;97962.69;5114424;28;20184;-77
2023/05/07 10:51:32;;;;;;;2.90;1.70;;;;;;;22.77;60.06;97959.66;5113884;28;20681;-77
2023/05/07 10:54:10;;;;;;;3.47;1.70;;;;;;;22.54;62.99;97952.47;5114204;28;20199;-77
2023/05/07 10:56:37;;;;;;;2.25;1.58;;;;;;;22.47;62.68;97957.50;5114628;28;20227;-77
2023/05/07 10:59:33;;;;;;;3.33;1.88;;;;;;;22.64;61.88;97952.28;5113994;28;20203;-77
2023/05/07 11:02:02;;;;;;;3.25;1.98;;;;;;;22.83;64.54;97953.06;5113866;28;20245;-77
2023/05/07 11:04:31;;;;;;;3.35;1.90;;;;;;;22.80;65.49;97953.63;5113245;28;20227;-77
2023/05/07 11:07:09;;;;;;;2.05;1.80;;;;;;;22.69;59.99;97942.19;5113953;28;20230;-77
2023/05/07 11:10:07;;;;;;;2.80;1.67;;;;;;;22.79;64.94;97952.81;5114373;28;20518;-77
2023/05/07 11:12:36;;;;;;;2.13;1.70;;;;;;;22.99;62.47;97951.63;5101217;28;20233;-77
2023/05/07 11:15:15;;;;;;;2.35;1.90;;;;;;;22.97;62.72;97948.44;5113824;28;20203;-77
2023/05/07 11:17:58;;;;;;;2.40;1.70;;;;;;;23.28;60.09;97939.41;5113632;28;20220;-77
2023/05/07 11:20:56;;;;;;;4.07;1.77;;;;;;;23.32;61.70;97940.41;5113475;28;20214;-77
2023/05/07 11:23:34;;;;;;;1.90;1.80;;;;;;;23.41;62.34;97941.31;5113958;28;20262;-77
2023/05/07 11:26:06;;;;;;;3.40;1.90;;;;;;;23.20;63.63;97936.63;5113360;28;20720;-77
2023/05/07 11:28:41;;;;;;;4.88;2.10;;;;;;;23.02;61.75;97932.06;5113839;28;20203;-77
2023/05/07 11:31:08;;;;;;;3.58;2.08;;;;;;;22.87;61.40;97941.28;5113957;28;20209;-77